Time;durP1;ratioP1;P1;durP2;ratioP2;P2;SDS_P1;SDS_P2;PMS_P1;PMS_P2;Temp;Humidity;BMP_temperature;BMP_pressure;BME280_temperature;BME280_humidity;BME280_pressure;Samples;Min_cycle;Max_cycle;Signal;HPM_P1;HPM_P2
2023/11/07 00:00:39;;;;;;;0.20;0.20;;;9.30;99.90;;;;;;5014019;28;20037;-66
2023/11/07 00:03:05;;;;;;;2.53;0.88;;;9.30;99.90;;;;;;5013423;28;20033;-66
2023/11/07 00:05:31;;;;;;;1.90;0.52;;;9.40;99.90;;;;;;5014170;28;20030;-67
2023/11/07 00:07:57;;;;;;;2.28;0.60;;;9.40;99.90;;;;;;5012596;28;20041;-67
2023/11/07 00:10:27;;;;;;;0.55;0.45;;;9.50;99.90;;;;;;5014453;28;20079;-68
2023/11/07 00:12:53;;;;;;;0.65;0.65;;;9.50;99.90;;;;;;4996533;28;20030;-67
2023/11/07 00:15:20;;;;;;;2.30;0.40;;;9.50;99.90;;;;;;5016225;28;20100;-67
2023/11/07 00:17:46;;;;;;;0.57;0.32;;;9.50;99.90;;;;;;5018886;28;20482;-67
2023/11/07 00:20:12;;;;;;;0.25;0.25;;;9.50;99.90;;;;;;4978286;28;20075;-67
2023/11/07 00:22:38;;;;;;;1.17;0.68;;;9.60;99.90;;;;;;5012877;28;20470;-67
2023/11/07 00:25:05;;;;;;;0.45;0.32;;;9.60;99.90;;;;;;5013769;28;20033;-67
2023/11/07 00:27:31;;;;;;;3.92;0.50;;;9.50;99.90;;;;;;5012566;28;20022;-67
2023/11/07 00:29:57;;;;;;;0.55;0.40;;;9.50;99.90;;;;;;5013735;28;20112;-67
2023/11/07 00:32:22;;;;;;;1.85;0.43;;;9.60;99.90;;;;;;4995386;28;20551;-68
2023/11/07 00:34:48;;;;;;;0.28;0.20;;;9.60;99.90;;;;;;5013611;28;20484;-67
2023/11/07 00:37:14;;;;;;;0.30;0.22;;;9.70;99.90;;;;;;5011599;28;20034;-68
2023/11/07 00:39:40;;;;;;;0.40;0.30;;;9.70;99.90;;;;;;5013499;28;20025;-67
2023/11/07 00:42:05;;;;;;;0.15;0.15;;;9.60;99.90;;;;;;5011912;28;20022;-67
2023/11/07 00:44:32;;;;;;;0.43;0.43;;;9.60;99.90;;;;;;5013521;28;20444;-67
2023/11/07 00:46:59;;;;;;;0.50;0.28;;;9.60;99.90;;;;;;5010849;28;20115;-66
2023/11/07 00:49:26;;;;;;;0.40;0.20;;;9.50;99.90;;;;;;4995795;28;20370;-67
2023/11/07 00:51:51;;;;;;;0.65;0.40;;;9.50;99.90;;;;;;5013048;28;20033;-66
2023/11/07 00:54:17;;;;;;;0.88;0.50;;;9.50;99.90;;;;;;5012918;28;20042;-66
2023/11/07 00:56:43;;;;;;;0.63;0.57;;;9.50;99.90;;;;;;4995226;28;20485;-66
2023/11/07 00:59:09;;;;;;;0.30;0.30;;;9.50;99.90;;;;;;5002854;28;20026;-68
2023/11/07 01:01:35;;;;;;;0.77;0.70;;;9.60;99.90;;;;;;4995525;28;20363;-67
2023/11/07 01:04:00;;;;;;;0.77;0.57;;;9.60;99.90;;;;;;5012259;28;20033;-67
2023/11/07 01:06:26;;;;;;;1.48;0.85;;;9.60;99.90;;;;;;5020745;28;20541;-67
2023/11/07 01:08:52;;;;;;;0.38;0.38;;;9.60;99.90;;;;;;5014553;28;20044;-67
2023/11/07 01:11:21;;;;;;;1.98;0.63;;;9.60;99.90;;;;;;5013102;28;20640;-67
2023/11/07 01:13:50;;;;;;;0.30;0.20;;;9.60;99.90;;;;;;5019665;28;20053;-67
2023/11/07 01:16:19;;;;;;;0.28;0.17;;;9.60;99.90;;;;;;5002858;28;20021;-67
2023/11/07 01:18:45;;;;;;;0.45;0.40;;;9.60;99.90;;;;;;4975916;28;20050;-67
2023/11/07 01:21:10;;;;;;;0.85;0.40;;;9.50;99.90;;;;;;5010403;28;20049;-66
2023/11/07 01:23:37;;;;;;;0.65;0.28;;;9.60;99.90;;;;;;4994650;28;20084;-67
2023/11/07 01:26:05;;;;;;;0.80;0.65;;;9.60;99.90;;;;;;4994463;28;20109;-67
2023/11/07 01:28:31;;;;;;;1.48;0.45;;;9.60;99.90;;;;;;5011900;28;20494;-67
2023/11/07 01:30:57;;;;;;;0.25;0.25;;;9.60;99.90;;;;;;4995164;28;20116;-67
2023/11/07 01:33:23;;;;;;;0.38;0.17;;;9.50;99.90;;;;;;4994696;28;20105;-67
2023/11/07 01:35:48;;;;;;;0.28;0.28;;;9.50;99.90;;;;;;5012488;28;20018;-67
2023/11/07 01:38:14;;;;;;;1.75;1.40;;;9.50;99.90;;;;;;4993882;28;20428;-66
2023/11/07 01:40:40;;;;;;;0.60;0.30;;;9.60;99.90;;;;;;4994710;28;20398;-67
2023/11/07 01:43:14;;;;;;;0.65;0.55;;;9.60;99.90;;;;;;5011444;28;20394;-67
2023/11/07 01:45:41;;;;;;;0.85;0.75;;;9.60;99.90;;;;;;4994800;28;20033;-67
2023/11/07 01:48:11;;;;;;;0.45;0.38;;;9.70;99.90;;;;;;5011513;28;20068;-67
2023/11/07 01:50:37;;;;;;;0.45;0.30;;;9.60;99.90;;;;;;4995465;28;20630;-65
2023/11/07 01:53:05;;;;;;;0.30;0.28;;;9.60;99.90;;;;;;4994296;28;20046;-67
2023/11/07 01:55:32;;;;;;;0.50;0.43;;;9.60;99.90;;;;;;5012153;28;20555;-67
2023/11/07 01:58:02;;;;;;;0.85;0.70;;;9.60;99.90;;;;;;4994230;28;20034;-67
2023/11/07 02:00:29;;;;;;;0.73;0.53;;;9.60;99.90;;;;;;4987296;28;20026;-67
2023/11/07 02:02:58;;;;;;;0.70;0.60;;;9.50;99.90;;;;;;4993975;28;20025;-67
2023/11/07 02:05:24;;;;;;;0.93;0.85;;;9.50;99.90;;;;;;4995407;28;20025;-66
2023/11/07 02:07:50;;;;;;;1.55;0.75;;;9.40;99.90;;;;;;5004243;28;20094;-66
2023/11/07 02:10:15;;;;;;;0.32;0.28;;;9.50;99.90;;;;;;5020542;28;20034;-66
2023/11/07 02:12:41;;;;;;;0.73;0.57;;;9.40;99.90;;;;;;5017114;28;20030;-67
2023/11/07 02:15:21;;;;;;;0.95;0.95;;;9.50;99.90;;;;;;5015579;28;20025;-67
2023/11/07 02:17:47;;;;;;;0.38;0.17;;;9.40;99.90;;;;;;4993439;28;20025;-68
2023/11/07 02:20:14;;;;;;;0.30;0.20;;;9.40;99.90;;;;;;4993846;28;20493;-67
2023/11/07 02:22:47;;;;;;;0.15;0.13;;;9.40;99.90;;;;;;4993601;28;20034;-67
2023/11/07 02:25:14;;;;;;;0.57;0.50;;;9.40;99.90;;;;;;5018897;28;20018;-67
2023/11/07 02:27:43;;;;;;;0.77;0.38;;;9.40;99.90;;;;;;5009897;28;20033;-67
2023/11/07 02:30:12;;;;;;;0.60;0.55;;;9.40;99.90;;;;;;4994205;28;20030;-67
2023/11/07 02:32:42;;;;;;;1.05;0.57;;;9.40;99.90;;;;;;5010247;28;20079;-67
2023/11/07 02:35:11;;;;;;;0.55;0.55;;;9.40;99.90;;;;;;4993687;28;20033;-68
2023/11/07 02:37:38;;;;;;;0.93;0.85;;;9.30;99.90;;;;;;4993106;28;20415;-67
2023/11/07 02:40:06;;;;;;;0.57;0.47;;;9.30;99.90;;;;;;4993497;28;20018;-68
2023/11/07 02:42:33;;;;;;;1.55;0.82;;;9.40;99.90;;;;;;5017627;28;20026;-67
2023/11/07 02:44:59;;;;;;;8.07;0.77;;;9.20;99.90;;;;;;4993732;28;20037;-66
2023/11/07 02:47:25;;;;;;;0.85;0.68;;;9.20;99.90;;;;;;4992857;28;20035;-67
2023/11/07 02:49:51;;;;;;;0.38;0.38;;;9.20;99.90;;;;;;5011257;28;20057;-67
2023/11/07 02:52:18;;;;;;;0.22;0.22;;;9.10;99.90;;;;;;5009932;28;20083;-67
2023/11/07 02:54:45;;;;;;;0.20;0.20;;;9.10;99.90;;;;;;4993344;28;20113;-67
2023/11/07 02:57:11;;;;;;;1.42;0.90;;;9.00;99.90;;;;;;5009579;28;20089;-67
2023/11/07 02:59:37;;;;;;;1.77;0.95;;;9.00;99.90;;;;;;5011130;28;20022;-66
2023/11/07 03:02:03;;;;;;;0.38;0.30;;;9.00;99.90;;;;;;4992372;28;20033;-66
2023/11/07 03:04:29;;;;;;;1.40;0.88;;;8.90;99.90;;;;;;4992852;28;20056;-67
2023/11/07 03:06:55;;;;;;;1.50;1.27;;;8.90;99.90;;;;;;5009978;28;20037;-67
2023/11/07 03:09:21;;;;;;;0.43;0.43;;;8.90;99.90;;;;;;5010583;28;20026;-67
2023/11/07 03:11:46;;;;;;;0.63;0.57;;;8.80;99.90;;;;;;4992999;28;20112;-67
2023/11/07 03:14:12;;;;;;;0.85;0.68;;;8.80;99.90;;;;;;4992402;28;20041;-67
2023/11/07 03:16:40;;;;;;;0.47;0.47;;;8.80;99.90;;;;;;4999003;28;20062;-67
2023/11/07 03:19:08;;;;;;;1.45;0.93;;;8.80;99.90;;;;;;5010103;28;20700;-67
2023/11/07 03:21:36;;;;;;;0.20;0.20;;;8.70;99.90;;;;;;5010877;28;20026;-67
2023/11/07 03:24:08;;;;;;;3.20;0.95;;;8.60;99.90;;;;;;4992749;28;20030;-68
2023/11/07 03:26:34;;;;;;;1.70;0.90;;;8.60;99.90;;;;;;5010143;28;20025;-68
2023/11/07 03:29:00;;;;;;;0.55;0.43;;;8.60;99.90;;;;;;4992657;28;20486;-65
2023/11/07 03:31:26;;;;;;;0.50;0.50;;;8.60;99.90;;;;;;4993308;28;20386;-66
2023/11/07 03:33:52;;;;;;;0.90;0.45;;;8.50;99.90;;;;;;4992958;28;20120;-68
2023/11/07 03:36:18;;;;;;;0.40;0.40;;;8.60;99.90;;;;;;4992981;28;20488;-67
2023/11/07 03:38:44;;;;;;;0.65;0.40;;;8.50;99.90;;;;;;4992781;28;20054;-68
2023/11/07 03:41:10;;;;;;;0.60;0.60;;;8.50;99.90;;;;;;4974308;28;20387;-67
2023/11/07 03:43:37;;;;;;;1.83;0.85;;;8.60;99.90;;;;;;5010008;28;20029;-67
2023/11/07 03:46:03;;;;;;;1.08;0.40;;;8.60;99.90;;;;;;4992745;28;20014;-67
2023/11/07 03:48:29;;;;;;;1.30;0.68;;;8.70;99.90;;;;;;4992732;28;20041;-68
2023/11/07 03:50:55;;;;;;;1.38;0.40;;;8.80;99.90;;;;;;5010803;28;20022;-67
2023/11/07 03:53:21;;;;;;;0.05;0.05;;;8.80;99.90;;;;;;5009549;28;20060;-67
2023/11/07 03:55:48;;;;;;;0.10;0.10;;;8.90;99.90;;;;;;5010235;28;20040;-67
2023/11/07 03:58:13;;;;;;;0.73;0.43;;;8.90;99.90;;;;;;5009174;28;20652;-67
2023/11/07 04:00:40;;;;;;;3.97;0.75;;;8.90;99.90;;;;;;5010630;28;20322;-68
2023/11/07 04:03:06;;;;;;;0.70;0.47;;;8.90;99.90;;;;;;4993431;28;20026;-65
2023/11/07 04:05:32;;;;;;;0.65;0.43;;;8.90;99.90;;;;;;5010670;28;20505;-68
2023/11/07 04:07:59;;;;;;;0.50;0.50;;;8.80;99.90;;;;;;4997460;28;20042;-67
2023/11/07 04:10:25;;;;;;;1.10;0.30;;;8.80;99.90;;;;;;4993079;28;20498;-68
2023/11/07 04:12:51;;;;;;;0.57;0.40;;;8.80;99.90;;;;;;5013114;28;20050;-68
2023/11/07 04:15:17;;;;;;;0.22;0.20;;;8.80;99.90;;;;;;4998479;28;20025;-66
2023/11/07 04:17:46;;;;;;;0.25;0.25;;;8.80;99.90;;;;;;5017028;28;20030;-66
2023/11/07 04:20:13;;;;;;;0.13;0.10;;;8.80;99.90;;;;;;4998050;28;20018;-66
2023/11/07 04:22:39;;;;;;;1.13;0.43;;;8.80;99.90;;;;;;5012542;28;20120;-66
2023/11/07 04:25:06;;;;;;;0.28;0.28;;;8.80;99.90;;;;;;4996298;28;20119;-66
2023/11/07 04:27:34;;;;;;;0.17;0.17;;;8.80;99.90;;;;;;4994948;28;20053;-66
2023/11/07 04:30:07;;;;;;;0.52;0.20;;;8.70;99.90;;;;;;5012439;28;20025;-66
2023/11/07 04:32:35;;;;;;;0.55;0.47;;;8.70;99.90;;;;;;5011849;28;20041;-66
2023/11/07 04:35:06;;;;;;;1.30;0.75;;;8.70;99.90;;;;;;5013020;28;20030;-66
2023/11/07 04:37:36;;;;;;;2.92;1.02;;;8.70;99.90;;;;;;5006735;28;20026;-67
2023/11/07 04:40:02;;;;;;;1.60;0.85;;;8.60;99.90;;;;;;4996620;28;20768;-67
2023/11/07 04:42:28;;;;;;;0.40;0.40;;;8.60;99.90;;;;;;4995410;28;20141;-67
2023/11/07 04:44:56;;;;;;;0.28;0.28;;;8.60;99.90;;;;;;5013663;28;20129;-67
2023/11/07 04:47:22;;;;;;;0.52;0.52;;;8.60;99.90;;;;;;4995501;28;20037;-67
2023/11/07 04:49:49;;;;;;;1.75;0.70;;;8.60;99.90;;;;;;5013552;28;20041;-66
2023/11/07 04:52:15;;;;;;;1.10;0.50;;;8.50;99.90;;;;;;4979610;28;20072;-67
2023/11/07 04:54:41;;;;;;;0.25;0.25;;;8.50;99.90;;;;;;4995634;28;20021;-68
2023/11/07 04:57:08;;;;;;;1.42;0.85;;;8.50;99.90;;;;;;5011848;28;20127;-66
2023/11/07 04:59:34;;;;;;;4.40;0.88;;;8.50;99.90;;;;;;4995712;28;20053;-67
2023/11/07 05:02:03;;;;;;;1.15;0.52;;;8.50;99.90;;;;;;5011903;28;20109;-66
2023/11/07 05:04:28;;;;;;;0.30;0.30;;;8.50;99.90;;;;;;4995459;28;20026;-67
2023/11/07 05:06:54;;;;;;;0.20;0.20;;;8.60;99.90;;;;;;4994740;28;20041;-67
2023/11/07 05:09:20;;;;;;;1.17;0.43;;;8.60;99.90;;;;;;5012459;28;20113;-67
2023/11/07 05:11:46;;;;;;;1.00;0.35;;;8.70;99.90;;;;;;5020862;28;20132;-66
2023/11/07 05:14:11;;;;;;;0.98;0.40;;;8.70;99.90;;;;;;4979403;28;20418;-67
2023/11/07 05:16:39;;;;;;;0.45;0.35;;;8.70;99.90;;;;;;5017929;28;20117;-67
2023/11/07 05:19:09;;;;;;;0.98;0.65;;;8.80;99.90;;;;;;4994961;28;20101;-66
2023/11/07 05:21:36;;;;;;;2.67;1.92;;;8.70;99.90;;;;;;4992669;28;20113;-67
2023/11/07 05:24:05;;;;;;;1.50;0.38;;;8.80;99.90;;;;;;5009418;28;20029;-67
2023/11/07 05:26:31;;;;;;;0.30;0.25;;;8.80;99.90;;;;;;5010151;28;20017;-67
2023/11/07 05:28:59;;;;;;;0.85;0.20;;;8.90;99.90;;;;;;5002867;28;20022;-67
2023/11/07 05:31:26;;;;;;;1.00;0.85;;;8.90;99.90;;;;;;5019342;28;20142;-65
2023/11/07 05:33:52;;;;;;;1.27;0.45;;;9.00;99.90;;;;;;5015944;28;20050;-69
2023/11/07 05:36:18;;;;;;;0.25;0.20;;;9.10;99.90;;;;;;5016422;28;20056;-69
2023/11/07 05:38:44;;;;;;;0.10;0.10;;;9.20;99.90;;;;;;4994434;28;20478;-69
2023/11/07 05:41:11;;;;;;;1.38;0.55;;;9.20;99.90;;;;;;5013865;28;20034;-67
2023/11/07 05:43:39;;;;;;;3.85;0.57;;;9.20;99.90;;;;;;5012000;28;20056;-67
2023/11/07 05:46:05;;;;;;;0.32;0.32;;;9.20;99.90;;;;;;4995320;28;20027;-68
2023/11/07 05:48:32;;;;;;;0.20;0.10;;;9.20;99.90;;;;;;5012496;28;20389;-68
2023/11/07 05:51:00;;;;;;;2.00;0.82;;;9.20;99.90;;;;;;4995455;28;20022;-68
2023/11/07 05:53:26;;;;;;;0.63;0.40;;;9.20;99.90;;;;;;5012199;28;20033;-68
2023/11/07 05:55:52;;;;;;;1.60;1.42;;;9.20;99.90;;;;;;4994943;28;20453;-68
2023/11/07 05:58:18;;;;;;;0.25;0.25;;;9.20;99.90;;;;;;5011007;28;20042;-67
2023/11/07 06:00:44;;;;;;;0.17;0.17;;;9.20;99.90;;;;;;4995885;28;20033;-67
2023/11/07 06:03:13;;;;;;;0.38;0.15;;;9.20;99.90;;;;;;5010997;28;20034;-67
2023/11/07 06:05:40;;;;;;;0.50;0.32;;;9.20;99.90;;;;;;5013267;28;20041;-67
2023/11/07 06:08:06;;;;;;;1.08;0.98;;;9.20;99.90;;;;;;5013700;28;20029;-67
2023/11/07 06:10:32;;;;;;;1.65;0.35;;;9.20;99.90;;;;;;5016057;28;20122;-67
2023/11/07 06:12:58;;;;;;;0.10;0.10;;;9.10;99.90;;;;;;4997773;28;20037;-67
2023/11/07 06:15:23;;;;;;;0.38;0.25;;;9.20;99.90;;;;;;5001720;28;20502;-67
2023/11/07 06:17:49;;;;;;;1.25;0.20;;;9.20;99.90;;;;;;5011166;28;20029;-69
2023/11/07 06:20:18;;;;;;;0.45;0.40;;;9.20;99.90;;;;;;5012201;28;20072;-69
2023/11/07 06:22:44;;;;;;;0.20;0.20;;;9.20;99.90;;;;;;4995191;28;20030;-69
2023/11/07 06:25:12;;;;;;;0.20;0.20;;;9.20;99.90;;;;;;4995395;28;20398;-68
2023/11/07 06:27:38;;;;;;;0.10;0.10;;;9.20;99.90;;;;;;5011481;28;20034;-67
2023/11/07 06:30:06;;;;;;;0.05;0.00;;;9.20;99.90;;;;;;5012011;28;20370;-69
2023/11/07 06:32:32;;;;;;;0.80;0.40;;;9.20;99.90;;;;;;5006474;28;20148;-68
2023/11/07 06:34:58;;;;;;;3.15;0.77;;;9.20;99.90;;;;;;5011766;28;20115;-66
2023/11/07 06:37:23;;;;;;;0.22;0.10;;;9.20;99.90;;;;;;5010748;28;20456;-68
2023/11/07 06:39:49;;;;;;;0.70;0.70;;;9.20;99.90;;;;;;5010999;28;20026;-69
2023/11/07 06:42:17;;;;;;;4.40;0.88;;;9.20;99.90;;;;;;4992996;28;20030;-64
2023/11/07 06:44:44;;;;;;;0.10;0.10;;;9.20;99.90;;;;;;4993518;28;20022;-65
2023/11/07 06:47:09;;;;;;;0.20;0.20;;;9.30;99.90;;;;;;5009944;28;20129;-65
2023/11/07 06:49:35;;;;;;;0.85;0.50;;;9.30;99.90;;;;;;5011238;28;20180;-65
2023/11/07 06:52:01;;;;;;;1.15;0.22;;;9.30;99.90;;;;;;4993104;28;20029;-65
2023/11/07 06:54:26;;;;;;;0.17;0.17;;;9.20;99.90;;;;;;5010760;28;20050;-65
2023/11/07 06:56:52;;;;;;;0.68;0.50;;;9.30;99.90;;;;;;5010128;28;20026;-65
2023/11/07 06:59:18;;;;;;;0.68;0.40;;;9.30;99.90;;;;;;5010516;28;20390;-65
2023/11/07 07:01:47;;;;;;;0.73;0.32;;;9.30;99.90;;;;;;5010753;28;20494;-68
2023/11/07 07:04:13;;;;;;;0.65;0.63;;;9.30;99.90;;;;;;5009813;28;20505;-65
2023/11/07 07:06:40;;;;;;;1.23;0.68;;;9.40;99.90;;;;;;5010916;28;20033;-65
2023/11/07 07:09:05;;;;;;;0.98;0.60;;;9.40;99.90;;;;;;5018339;28;20049;-65
2023/11/07 07:11:31;;;;;;;0.10;0.10;;;9.50;99.90;;;;;;5010767;28;20037;-65
2023/11/07 07:13:57;;;;;;;2.92;0.90;;;9.50;99.90;;;;;;4992894;28;20093;-65
2023/11/07 07:16:23;;;;;;;0.10;0.10;;;9.50;99.90;;;;;;4976275;28;20057;-64
2023/11/07 07:18:50;;;;;;;0.38;0.32;;;9.50;99.90;;;;;;5009804;28;20081;-64
2023/11/07 07:21:18;;;;;;;0.10;0.10;;;9.60;99.90;;;;;;5011025;28;20026;-64
2023/11/07 07:23:46;;;;;;;0.10;0.10;;;9.50;99.90;;;;;;5009848;28;20030;-64
2023/11/07 07:26:14;;;;;;;0.10;0.10;;;9.50;99.90;;;;;;5010381;28;20026;-64
2023/11/07 07:28:40;;;;;;;0.30;0.20;;;9.50;99.90;;;;;;5009506;28;20033;-64
2023/11/07 07:31:06;;;;;;;0.80;0.30;;;9.50;99.90;;;;;;5013951;28;20083;-64
2023/11/07 07:33:37;;;;;;;0.00;0.00;;;9.50;99.90;;;;;;5010005;28;20041;-65
2023/11/07 07:36:04;;;;;;;0.20;0.20;;;9.50;99.90;;;;;;4992560;28;20117;-64
2023/11/07 07:38:36;;;;;;;4.10;0.52;;;9.50;99.90;;;;;;5010752;28;20786;-65
2023/11/07 07:41:05;;;;;;;0.68;0.20;;;9.60;99.90;;;;;;5010489;28;20870;-65
2023/11/07 07:43:31;;;;;;;1.35;0.35;;;9.60;99.90;;;;;;5009643;28;20042;-65
2023/11/07 07:45:57;;;;;;;0.50;0.30;;;9.60;99.90;;;;;;4999278;28;20064;-65
2023/11/07 07:48:23;;;;;;;0.25;0.20;;;9.50;99.90;;;;;;5019369;28;20462;-65
2023/11/07 07:50:51;;;;;;;0.25;0.20;;;9.60;99.90;;;;;;4992941;28;20032;-65
2023/11/07 07:53:20;;;;;;;0.35;0.30;;;9.60;99.90;;;;;;5014648;28;20037;-65
2023/11/07 07:55:50;;;;;;;0.10;0.10;;;9.60;99.90;;;;;;5014067;28;20031;-66
2023/11/07 07:58:19;;;;;;;1.35;0.50;;;9.60;99.90;;;;;;4996518;28;20030;-66
2023/11/07 08:00:49;;;;;;;0.13;0.13;;;9.60;99.90;;;;;;4997258;28;20065;-66
2023/11/07 08:03:16;;;;;;;0.40;0.35;;;9.70;99.90;;;;;;4976782;28;20467;-66
2023/11/07 08:05:44;;;;;;;0.65;0.55;;;9.70;99.90;;;;;;4996794;28;20076;-67
2023/11/07 08:08:11;;;;;;;0.20;0.20;;;9.80;99.90;;;;;;5013477;28;20034;-66
2023/11/07 08:10:38;;;;;;;0.17;0.17;;;9.80;99.90;;;;;;5014714;28;20037;-66
2023/11/07 08:13:06;;;;;;;0.73;0.50;;;9.80;99.90;;;;;;4996562;28;20054;-65
2023/11/07 08:15:35;;;;;;;0.55;0.35;;;9.80;99.90;;;;;;5020389;28;20026;-65
2023/11/07 08:18:08;;;;;;;0.38;0.35;;;9.80;99.90;;;;;;5003405;28;20038;-67
2023/11/07 08:20:34;;;;;;;0.25;0.25;;;9.80;99.90;;;;;;5024946;28;20033;-66
2023/11/07 08:23:01;;;;;;;1.25;0.77;;;9.70;99.90;;;;;;5013161;28;20022;-66
2023/11/07 08:25:30;;;;;;;0.20;0.20;;;9.80;99.90;;;;;;4996158;28;20099;-66
2023/11/07 08:27:56;;;;;;;0.85;0.28;;;9.70;99.90;;;;;;5011965;28;20466;-66
2023/11/07 08:30:22;;;;;;;0.63;0.38;;;9.70;99.90;;;;;;5013096;28;20367;-66
2023/11/07 08:32:50;;;;;;;0.47;0.47;;;9.70;99.90;;;;;;5012472;28;20474;-66
2023/11/07 08:35:16;;;;;;;1.55;0.73;;;9.80;99.90;;;;;;4995835;28;20033;-65
2023/11/07 08:37:44;;;;;;;0.13;0.13;;;9.90;99.90;;;;;;4966633;28;20056;-66
2023/11/07 08:40:12;;;;;;;0.47;0.45;;;9.80;99.90;;;;;;4993670;28;20033;-65
2023/11/07 08:42:43;;;;;;;0.95;0.38;;;9.80;99.90;;;;;;5011497;28;20586;-65
2023/11/07 08:45:18;;;;;;;0.93;0.73;;;9.80;99.90;;;;;;4996535;28;20030;-65
2023/11/07 08:47:46;;;;;;;1.10;0.40;;;9.80;99.90;;;;;;4977816;28;20097;-66
2023/11/07 08:50:13;;;;;;;0.75;0.43;;;9.90;99.90;;;;;;5013038;28;20022;-66
2023/11/07 08:52:42;;;;;;;0.40;0.30;;;9.90;99.90;;;;;;4995756;28;20045;-66
2023/11/07 08:55:09;;;;;;;3.08;0.22;;;9.90;99.90;;;;;;5012811;28;20030;-66
2023/11/07 08:57:41;;;;;;;5.82;0.38;;;10.00;99.90;;;;;;4994810;28;20034;-66
2023/11/07 09:00:09;;;;;;;0.30;0.30;;;9.90;99.90;;;;;;5012954;28;20089;-66
2023/11/07 09:02:36;;;;;;;0.17;0.17;;;9.90;99.90;;;;;;5003526;28;20108;-67
2023/11/07 09:05:03;;;;;;;2.28;0.43;;;9.90;99.90;;;;;;4995422;28;20021;-66
2023/11/07 09:07:30;;;;;;;2.10;1.20;;;10.10;99.90;;;;;;5012001;28;20078;-65
2023/11/07 09:09:57;;;;;;;0.65;0.28;;;10.00;99.90;;;;;;4995835;28;20108;-66
2023/11/07 09:12:23;;;;;;;1.05;0.35;;;10.10;99.90;;;;;;5013656;28;20096;-66
2023/11/07 09:14:50;;;;;;;2.20;0.80;;;10.10;99.90;;;;;;5005796;28;20018;-66
2023/11/07 09:17:16;;;;;;;1.63;0.30;;;10.10;99.90;;;;;;4993751;28;20034;-66
2023/11/07 09:19:42;;;;;;;0.30;0.20;;;10.20;99.90;;;;;;5021169;28;20530;-66
2023/11/07 09:22:09;;;;;;;0.70;0.35;;;10.20;99.90;;;;;;5020049;28;20459;-66
2023/11/07 09:24:35;;;;;;;0.32;0.32;;;10.20;99.90;;;;;;5020933;28;20056;-66
2023/11/07 09:27:02;;;;;;;0.08;0.08;;;10.30;99.90;;;;;;5021530;28;20091;-66
2023/11/07 09:29:28;;;;;;;0.88;0.73;;;10.20;99.90;;;;;;5023728;28;20106;-66
2023/11/07 09:31:54;;;;;;;0.65;0.30;;;10.30;99.90;;;;;;5019754;28;20022;-66
2023/11/07 09:34:24;;;;;;;0.17;0.17;;;10.30;99.90;;;;;;5019468;28;20061;-66
2023/11/07 09:36:50;;;;;;;1.83;0.80;;;10.40;99.90;;;;;;5015066;28;20034;-66
2023/11/07 09:39:16;;;;;;;0.43;0.20;;;10.40;99.90;;;;;;5010235;28;20386;-65
2023/11/07 09:41:43;;;;;;;0.10;0.10;;;10.40;99.90;;;;;;5016230;28;20037;-66
2023/11/07 09:44:13;;;;;;;1.00;0.68;;;10.40;99.90;;;;;;4977510;28;20112;-65
2023/11/07 09:46:43;;;;;;;0.57;0.30;;;10.40;99.90;;;;;;5014442;28;20022;-65
2023/11/07 09:49:09;;;;;;;1.38;0.73;;;10.50;99.90;;;;;;4994754;28;20029;-65
2023/11/07 09:51:38;;;;;;;2.10;0.45;;;10.50;99.90;;;;;;4995364;28;20017;-65
2023/11/07 09:54:08;;;;;;;0.75;0.40;;;10.50;99.90;;;;;;5011198;28;20034;-65
2023/11/07 09:56:39;;;;;;;0.10;0.10;;;10.50;99.90;;;;;;5011847;28;20076;-65
2023/11/07 09:59:38;;;;;;;1.05;0.40;;;10.40;99.90;;;;;;5011510;28;20502;-65
2023/11/07 10:02:06;;;;;;;0.25;0.20;;;10.40;99.90;;;;;;5009410;28;20439;-65
2023/11/07 10:04:35;;;;;;;0.35;0.28;;;10.50;99.90;;;;;;5011417;28;20074;-64
2023/11/07 10:07:03;;;;;;;0.35;0.30;;;10.50;99.90;;;;;;5010543;28;20033;-65
2023/11/07 10:09:31;;;;;;;13.10;0.40;;;10.50;99.90;;;;;;5011591;28;20030;-65
2023/11/07 10:11:58;;;;;;;0.28;0.28;;;10.60;99.90;;;;;;4993544;28;20682;-65
2023/11/07 10:14:26;;;;;;;0.38;0.38;;;10.70;99.90;;;;;;5010872;28;20068;-65
2023/11/07 10:16:54;;;;;;;0.10;0.10;;;10.80;99.90;;;;;;4999940;28;20034;-65
2023/11/07 10:19:22;;;;;;;0.38;0.30;;;10.80;99.90;;;;;;5011123;28;20025;-65
2023/11/07 10:21:49;;;;;;;0.25;0.17;;;10.90;99.90;;;;;;5012093;28;20100;-65
2023/11/07 10:24:15;;;;;;;3.03;0.28;;;11.00;99.90;;;;;;5010250;28;20021;-65
2023/11/07 10:27:02;;;;;;;0.22;0.22;;;11.00;99.90;;;;;;4993267;28;20386;-65
2023/11/07 10:29:34;;;;;;;0.77;0.32;;;11.00;99.90;;;;;;5010428;28;20034;-65
2023/11/07 10:32:05;;;;;;;;;;;10.90;99.90;;;;;;5010916;28;20513;-65
2023/11/07 10:34:31;;;;;;;;;;;11.00;99.90;;;;;;5011469;28;19920;-65
2023/11/07 10:37:01;;;;;;;0.10;0.10;;;10.90;99.90;;;;;;4992534;28;19996;-65
2023/11/07 10:39:27;;;;;;;0.22;0.22;;;10.70;99.90;;;;;;4993813;28;20021;-65
2023/11/07 10:41:56;;;;;;;0.30;0.30;;;10.70;99.90;;;;;;5010836;28;20417;-65
2023/11/07 10:44:24;;;;;;;0.10;0.05;;;10.70;99.90;;;;;;4992097;28;20025;-65
2023/11/07 10:46:58;;;;;;;0.03;0.03;;;10.70;99.90;;;;;;5010898;28;20121;-65
2023/11/07 10:49:25;;;;;;;0.90;0.32;;;10.70;99.90;;;;;;4992834;28;20033;-65
2023/11/07 10:51:52;;;;;;;0.63;0.40;;;10.80;99.90;;;;;;5011838;28;20465;-65
2023/11/07 10:54:21;;;;;;;0.30;0.30;;;10.80;99.90;;;;;;5009189;28;20030;-65
2023/11/07 10:56:51;;;;;;;3.20;0.35;;;10.80;99.90;;;;;;5010396;28;20049;-65
2023/11/07 10:59:24;;;;;;;0.00;0.00;;;10.80;99.90;;;;;;5010627;28;20112;-65
2023/11/07 11:01:53;;;;;;;1.17;0.52;;;10.90;99.90;;;;;;5011056;28;20034;-66
2023/11/07 11:04:22;;;;;;;0.40;0.10;;;11.00;99.90;;;;;;5008900;28;20105;-65
2023/11/07 11:07:08;;;;;;;0.30;0.10;;;11.00;99.90;;;;;;4993862;28;20318;-65
2023/11/07 11:09:35;;;;;;;0.15;0.15;;;11.10;99.90;;;;;;5003228;28;20033;-64
2023/11/07 11:12:06;;;;;;;0.10;0.10;;;11.10;99.90;;;;;;5011083;28;20030;-64
2023/11/07 11:14:33;;;;;;;0.40;0.40;;;11.20;99.90;;;;;;5010248;28;20022;-64
2023/11/07 11:17:18;;;;;;;0.45;0.30;;;11.20;99.90;;;;;;5010351;28;20026;-66
2023/11/07 11:19:57;;;;;;;2.10;1.02;;;11.30;99.90;;;;;;4995871;28;20033;-65
2023/11/07 11:22:33;;;;;;;1.30;0.75;;;11.40;99.90;;;;;;4991726;28;20139;-65
2023/11/07 11:25:31;;;;;;;0.63;0.38;;;11.30;99.90;;;;;;4994055;28;20034;-65
2023/11/07 11:28:02;;;;;;;0.00;0.00;;;11.20;99.90;;;;;;5019109;28;20057;-65
2023/11/07 11:30:40;;;;;;;0.90;0.40;;;11.20;99.90;;;;;;5012177;28;20037;-66
2023/11/07 11:33:08;;;;;;;1.40;0.20;;;11.20;99.90;;;;;;5016837;28;20042;-65
2023/11/07 11:35:38;;;;;;;0.50;0.30;;;11.30;99.90;;;;;;5016060;28;20037;-65
2023/11/07 11:38:19;;;;;;;0.17;0.17;;;11.20;99.90;;;;;;4996906;28;20076;-65
2023/11/07 11:40:49;;;;;;;0.80;0.47;;;11.20;99.90;;;;;;4997578;28;20025;-66
2023/11/07 11:43:17;;;;;;;0.47;0.30;;;11.20;99.90;;;;;;5020812;28;20029;-65
2023/11/07 11:45:44;;;;;;;2.05;1.17;;;11.00;99.90;;;;;;5024800;28;20022;-65
2023/11/07 11:48:10;;;;;;;0.20;0.20;;;10.90;99.90;;;;;;5022142;28;20065;-66
2023/11/07 11:50:37;;;;;;;1.00;0.25;;;10.80;99.90;;;;;;5025118;28;20035;-65
2023/11/07 11:53:05;;;;;;;0.22;0.10;;;10.70;99.90;;;;;;5019179;28;20021;-65
2023/11/07 11:55:59;;;;;;;0.47;0.35;;;10.60;99.90;;;;;;5012348;28;20108;-66
2023/11/07 11:58:31;;;;;;;0.10;0.10;;;10.60;99.90;;;;;;5010873;28;20034;-67
2023/11/07 12:01:00;;;;;;;0.15;0.05;;;10.60;99.90;;;;;;4995663;28;20026;-66
2023/11/07 12:03:36;;;;;;;0.28;0.28;;;10.60;99.90;;;;;;5013017;28;20434;-65
2023/11/07 12:06:06;;;;;;;0.10;0.10;;;10.50;99.90;;;;;;5001525;28;20502;-65
2023/11/07 12:08:35;;;;;;;0.15;0.10;;;10.50;99.90;;;;;;5022597;28;20044;-66
2023/11/07 12:11:02;;;;;;;0.00;0.00;;;10.60;99.90;;;;;;5019710;28;20528;-65
2023/11/07 12:13:31;;;;;;;2.47;0.60;;;10.60;99.90;;;;;;5000694;28;20052;-65
2023/11/07 12:16:16;;;;;;;0.30;0.30;;;10.70;99.90;;;;;;5017346;28;20060;-66
2023/11/07 12:18:48;;;;;;;0.30;0.20;;;10.70;99.90;;;;;;5019559;28;20344;-66
2023/11/07 12:21:23;;;;;;;0.47;0.40;;;10.70;99.90;;;;;;5013095;28;20370;-68
2023/11/07 12:23:51;;;;;;;0.32;0.20;;;10.90;99.90;;;;;;5013452;28;20042;-67
2023/11/07 12:26:17;;;;;;;0.17;0.17;;;10.90;99.90;;;;;;4995966;28;20479;-68
2023/11/07 12:28:46;;;;;;;0.45;0.45;;;11.00;99.90;;;;;;5012301;28;20040;-67
2023/11/07 12:31:12;;;;;;;0.70;0.20;;;11.00;99.90;;;;;;4996411;28;20034;-66
2023/11/07 12:33:44;;;;;;;5.25;0.28;;;11.10;99.90;;;;;;5012203;28;20105;-66
2023/11/07 12:36:13;;;;;;;1.55;0.82;;;11.50;99.90;;;;;;5013139;28;20030;-66
2023/11/07 12:38:42;;;;;;;0.10;0.10;;;12.00;99.90;;;;;;4994146;28;20088;-66
2023/11/07 12:41:10;;;;;;;0.25;0.03;;;12.00;99.90;;;;;;5012899;28;20394;-64
2023/11/07 12:43:40;;;;;;;0.10;0.10;;;12.20;99.90;;;;;;5020768;28;20620;-65
2023/11/07 12:46:11;;;;;;;0.30;0.10;;;12.30;99.90;;;;;;5019581;28;20026;-65
2023/11/07 12:48:37;;;;;;;0.00;0.00;;;12.90;99.90;;;;;;5022869;28;20398;-65
2023/11/07 12:51:08;;;;;;;0.10;0.10;;;13.00;99.90;;;;;;5012704;28;20025;-65
2023/11/07 12:53:45;;;;;;;0.17;0.10;;;13.00;99.90;;;;;;5009506;28;20536;-64
2023/11/07 12:56:11;;;;;;;4.65;0.25;;;12.80;99.90;;;;;;4993510;28;20402;-64
2023/11/07 12:58:37;;;;;;;0.10;0.10;;;13.20;99.90;;;;;;5010445;28;20030;-65